createdAt,value
2022-07-30T00:02:20.729Z,24.62
2022-07-30T00:04:48.956Z,24.57
2022-07-30T00:07:16.805Z,24.08
2022-07-30T00:09:44.657Z,24.54
2022-07-30T00:12:12.837Z,24.19
2022-07-30T00:14:40.646Z,24.16
2022-07-30T00:17:08.781Z,24.29
2022-07-30T00:19:37.137Z,24.61
2022-07-30T00:22:05.025Z,24.51
2022-07-30T00:24:32.822Z,24.68
2022-07-30T00:27:01.115Z,24.59
2022-07-30T00:29:29.157Z,24.85
2022-07-30T00:31:56.924Z,24.56
2022-07-30T00:34:25.147Z,24.72
2022-07-30T00:36:53.016Z,24.73
2022-07-30T00:39:20.806Z,24.77
2022-07-30T00:41:57.364Z,24.76
2022-07-30T00:44:25.525Z,24.54
2022-07-30T00:46:54.336Z,24.67
2022-07-30T00:49:22.310Z,24.39
2022-07-30T00:51:50.355Z,24.40
2022-07-30T00:54:18.635Z,24.83
2022-07-30T00:56:46.536Z,24.82
2022-07-30T00:59:15.106Z,24.78
2022-07-30T01:01:43.464Z,24.37
2022-07-30T01:04:12.134Z,24.30
2022-07-30T01:06:40.644Z,24.13
2022-07-30T01:09:09.164Z,24.56
2022-07-30T01:11:40.785Z,24.48
2022-07-30T01:14:09.791Z,24.36
2022-07-30T01:16:39.766Z,24.62
2022-07-30T01:19:34.355Z,24.31
2022-07-30T01:22:21.236Z,24.32
2022-07-30T01:25:04.111Z,24.36
2022-07-30T01:27:57.655Z,24.12
2022-07-30T01:30:29.494Z,24.29
2022-07-30T01:32:59.335Z,24.49
2022-07-30T01:35:28.680Z,24.58
2022-07-30T01:37:57.978Z,24.72
2022-07-30T01:40:27.855Z,24.59
2022-07-30T01:42:57.795Z,24.59
2022-07-30T01:45:27.501Z,24.40
2022-07-30T01:47:59.335Z,24.59
2022-07-30T01:50:29.127Z,24.67
2022-07-30T01:52:57.774Z,24.33
2022-07-30T01:55:31.166Z,24.39
2022-07-30T01:58:00.684Z,24.33
2022-07-30T02:00:35.190Z,24.17
2022-07-30T02:03:05.160Z,24.33
2022-07-30T02:05:35.355Z,24.41
2022-07-30T02:08:42.924Z,24.09
2022-07-30T02:11:13.126Z,24.22
2022-07-30T02:13:51.506Z,24.26
2022-07-30T02:16:28.836Z,24.50
2022-07-30T02:19:04.443Z,24.07
2022-07-30T02:21:38.861Z,24.03
2022-07-30T02:24:13.886Z,24.50
2022-07-30T02:26:43.576Z,23.51
2022-07-30T02:29:11.824Z,23.63
2022-07-30T02:31:40.729Z,23.74
2022-07-30T02:34:09.666Z,23.65
2022-07-30T02:36:38.400Z,23.82
2022-07-30T02:39:06.414Z,23.55
2022-07-30T02:41:38.846Z,23.82
2022-07-30T02:44:07.176Z,23.97
2022-07-30T02:46:36.643Z,23.58
2022-07-30T02:49:07.316Z,23.55
2022-07-30T02:51:36.255Z,23.37
2022-07-30T02:54:04.565Z,24.15
2022-07-30T02:56:32.985Z,23.85
2022-07-30T02:59:02.545Z,23.75
2022-07-30T03:01:31.595Z,23.80
2022-07-30T03:03:59.736Z,23.64
2022-07-30T03:06:28.006Z,23.48
2022-07-30T03:08:56.744Z,23.50
2022-07-30T03:11:25.156Z,23.47
2022-07-30T03:13:53.594Z,23.33
2022-07-30T03:16:23.024Z,23.39
2022-07-30T03:18:52.095Z,23.09
2022-07-30T03:21:20.936Z,23.54
2022-07-30T03:23:50.179Z,23.26
2022-07-30T03:26:20.575Z,23.38
2022-07-30T03:28:49.515Z,23.29
2022-07-30T03:31:17.826Z,23.64
2022-07-30T03:33:47.171Z,23.85
2022-07-30T03:36:16.005Z,23.51
2022-07-30T03:38:44.326Z,23.70
2022-07-30T03:41:12.375Z,23.65
2022-07-30T03:43:41.385Z,23.59
2022-07-30T03:46:10.976Z,23.76
2022-07-30T03:48:40.028Z,23.94
2022-07-30T03:51:11.945Z,23.60
2022-07-30T03:53:41.251Z,24.07
2022-07-30T03:56:14.335Z,23.58
2022-07-30T03:58:43.985Z,23.66
2022-07-30T04:01:12.615Z,23.77
2022-07-30T04:03:42.063Z,23.76
2022-07-30T04:06:09.864Z,23.46
2022-07-30T04:08:37.647Z,23.14
2022-07-30T04:11:06.365Z,23.52
2022-07-30T04:13:40.257Z,23.40
2022-07-30T04:16:39.548Z,23.11
2022-07-30T04:19:13.364Z,23.55
2022-07-30T04:21:42.357Z,23.55
2022-07-30T04:24:11.525Z,23.63
2022-07-30T04:26:39.947Z,23.30
2022-07-30T04:29:16.679Z,23.79
2022-07-30T04:31:46.723Z,23.62
2022-07-30T04:34:15.915Z,23.72
2022-07-30T04:36:45.401Z,23.74
2022-07-30T04:39:13.814Z,24.01
2022-07-30T04:41:48.886Z,23.76
2022-07-30T04:44:20.199Z,23.93
2022-07-30T04:46:49.369Z,23.78
2022-07-30T04:49:18.436Z,23.45
2022-07-30T04:51:47.078Z,23.75
2022-07-30T04:54:16.494Z,23.78
2022-07-30T04:56:53.802Z,24.23
2022-07-30T04:59:29.368Z,24.04
2022-07-30T05:01:59.527Z,23.83
2022-07-30T05:04:28.558Z,23.65
2022-07-30T05:06:57.301Z,23.91
2022-07-30T05:09:25.402Z,23.97
2022-07-30T05:11:54.775Z,24.10
2022-07-30T05:14:24.196Z,24.24
2022-07-30T05:16:52.756Z,24.73
2022-07-30T05:19:21.498Z,24.49
2022-07-30T05:21:49.745Z,24.71
2022-07-30T05:24:17.668Z,25.14
2022-07-30T05:26:46.856Z,25.30
2022-07-30T05:29:19.852Z,25.01
2022-07-30T05:31:49.025Z,24.89
2022-07-30T05:34:17.457Z,24.93
2022-07-30T05:36:45.538Z,24.56
2022-07-30T05:39:13.693Z,24.78
2022-07-30T05:41:42.637Z,25.06
2022-07-30T05:44:10.759Z,24.84
2022-07-30T05:46:38.693Z,24.56
2022-07-30T05:49:07.150Z,24.67
2022-07-30T05:51:35.169Z,24.54
2022-07-30T05:54:03.180Z,24.49
2022-07-30T05:56:32.658Z,24.45
2022-07-30T05:59:02.076Z,24.25
2022-07-30T06:01:31.058Z,24.22
2022-07-30T06:04:00.081Z,24.45
2022-07-30T06:06:35.278Z,25.01
2022-07-30T06:09:03.815Z,25.56
2022-07-30T06:11:31.655Z,25.66
2022-07-30T06:14:01.286Z,25.75
2022-07-30T06:16:29.597Z,26.37
2022-07-30T06:18:57.720Z,26.10
2022-07-30T06:21:27.374Z,26.07
2022-07-30T06:23:56.808Z,26.69
2022-07-30T06:26:24.646Z,26.97
2022-07-30T06:28:52.595Z,26.95
2022-07-30T06:31:20.889Z,27.02
2022-07-30T06:33:48.667Z,28.08
2022-07-30T06:36:16.567Z,27.97
2022-07-30T06:38:45.526Z,28.09
2022-07-30T06:41:13.487Z,27.17
2022-07-30T06:43:42.186Z,27.80
2022-07-30T06:46:12.870Z,28.22
2022-07-30T06:48:42.545Z,28.51
2022-07-30T06:51:10.874Z,28.30
2022-07-30T06:53:42.895Z,28.11
2022-07-30T06:56:18.875Z,28.27
2022-07-30T06:58:47.540Z,28.14
2022-07-30T07:01:18.011Z,28.41
2022-07-30T07:03:45.917Z,29.16
2022-07-30T07:06:13.705Z,28.72
2022-07-30T07:08:42.777Z,28.95
2022-07-30T07:11:11.687Z,29.73
2022-07-30T07:13:41.020Z,29.80
2022-07-30T07:16:10.661Z,30.16
2022-07-30T07:18:40.311Z,30.22
2022-07-30T07:21:08.675Z,30.22
2022-07-30T07:23:41.797Z,30.87
2022-07-30T07:26:13.247Z,29.94
2022-07-30T07:28:41.577Z,28.96
2022-07-30T07:31:10.947Z,29.90
2022-07-30T07:33:40.785Z,30.57
2022-07-30T07:36:08.556Z,29.50
2022-07-30T07:38:36.866Z,28.73
2022-07-30T07:41:05.834Z,28.92
2022-07-30T07:43:33.727Z,28.54
2022-07-30T07:46:02.721Z,27.19
2022-07-30T07:48:31.199Z,27.12
2022-07-30T07:51:00.759Z,26.82
2022-07-30T07:53:29.378Z,25.74
2022-07-30T07:55:57.917Z,26.55
2022-07-30T07:58:26.984Z,26.42
2022-07-30T08:00:55.593Z,26.02
2022-07-30T08:03:24.756Z,26.30
2022-07-30T08:06:02.079Z,26.45
2022-07-30T08:08:40.397Z,25.98
2022-07-30T08:11:10.057Z,25.83
2022-07-30T08:13:52.049Z,25.99
2022-07-30T08:16:32.905Z,26.24
2022-07-30T08:19:05.027Z,24.86
2022-07-30T08:21:33.336Z,24.77
2022-07-30T08:24:01.213Z,24.85
2022-07-30T08:26:30.200Z,24.74
2022-07-30T08:28:59.226Z,25.60
2022-07-30T08:31:27.540Z,26.35
2022-07-30T08:33:55.787Z,26.08
2022-07-30T08:36:25.995Z,24.92
2022-07-30T08:38:54.415Z,24.39
2022-07-30T08:41:22.898Z,24.71
2022-07-30T08:43:51.395Z,24.92
2022-07-30T08:46:21.826Z,24.71
2022-07-30T08:48:52.443Z,25.02
2022-07-30T08:51:20.287Z,25.07
2022-07-30T08:53:50.007Z,24.22
2022-07-30T08:56:20.196Z,24.06
2022-07-30T08:58:48.428Z,24.39
2022-07-30T09:01:17.496Z,24.25
2022-07-30T09:03:45.905Z,24.16
2022-07-30T09:06:15.148Z,24.03
2022-07-30T09:08:43.347Z,24.17
2022-07-30T09:11:12.036Z,23.57
2022-07-30T09:13:42.518Z,23.15
2022-07-30T09:16:25.267Z,23.03
2022-07-30T09:18:55.176Z,23.21
2022-07-30T09:21:28.850Z,22.73
2022-07-30T09:24:00.691Z,23.06
2022-07-30T09:26:30.495Z,23.16
2022-07-30T09:29:19.051Z,23.38
2022-07-30T09:32:04.641Z,22.84
2022-07-30T09:34:38.556Z,23.06
2022-07-30T09:37:16.491Z,22.81
2022-07-30T09:39:56.547Z,22.90
2022-07-30T09:42:29.242Z,22.31
2022-07-30T09:45:07.871Z,22.40
2022-07-30T09:47:38.566Z,21.81
2022-07-30T09:50:09.927Z,22.33
2022-07-30T09:52:43.820Z,22.62
2022-07-30T09:55:13.907Z,21.62
2022-07-30T09:57:57.690Z,21.75
2022-07-30T10:00:29.489Z,22.06
2022-07-30T10:03:00.639Z,21.66
2022-07-30T10:06:00.482Z,21.84
2022-07-30T10:08:41.620Z,21.67
2022-07-30T10:11:15.337Z,22.12
2022-07-30T10:13:45.797Z,22.04
2022-07-30T10:16:14.051Z,21.49
2022-07-30T10:18:45.238Z,21.42
2022-07-30T10:21:17.598Z,21.89
2022-07-30T10:23:50.459Z,21.67
2022-07-30T10:26:21.738Z,22.19
2022-07-30T10:28:51.936Z,22.12
2022-07-30T10:31:49.490Z,23.10
2022-07-30T10:34:08.656Z,23.34
2022-07-30T10:36:49.130Z,23.16
2022-07-30T10:39:22.286Z,22.70
2022-07-30T10:41:54.579Z,22.83
2022-07-30T10:44:35.108Z,23.25
2022-07-30T10:47:14.125Z,22.82
2022-07-30T10:49:43.248Z,22.63
2022-07-30T10:52:12.104Z,22.79
2022-07-30T10:54:45.338Z,23.45
2022-07-30T10:57:22.985Z,23.62
2022-07-30T11:00:00.776Z,23.62
2022-07-30T11:02:30.655Z,23.22
2022-07-30T11:05:44.931Z,22.95
2022-07-30T11:08:32.137Z,23.37
2022-07-30T11:11:19.626Z,23.03
2022-07-30T11:13:53.439Z,23.01
2022-07-30T11:16:34.268Z,23.35
2022-07-30T11:19:53.422Z,22.68
2022-07-30T11:22:29.695Z,23.49
2022-07-30T11:24:58.416Z,23.56
2022-07-30T11:27:41.435Z,23.75
2022-07-30T11:30:17.401Z,23.78
2022-07-30T11:32:48.438Z,24.26
2022-07-30T11:35:34.888Z,24.31
2022-07-30T11:38:18.934Z,23.89
2022-07-30T11:40:47.457Z,24.53
2022-07-30T11:43:35.119Z,24.38
2022-07-30T11:46:29.305Z,24.70
2022-07-30T11:49:05.320Z,24.43
2022-07-30T11:51:44.505Z,24.69
2022-07-30T11:54:12.997Z,24.85
2022-07-30T11:56:52.932Z,25.14
2022-07-30T11:59:21.142Z,24.94
2022-07-30T12:01:56.138Z,24.63
2022-07-30T12:04:24.757Z,25.33
2022-07-30T12:06:52.505Z,25.14
2022-07-30T12:09:28.990Z,25.12
2022-07-30T12:11:58.016Z,24.76
2022-07-30T12:14:25.889Z,24.52
2022-07-30T12:16:54.640Z,24.62
2022-07-30T12:19:23.194Z,24.49
2022-07-30T12:21:53.349Z,24.37
2022-07-30T12:24:26.487Z,24.12
2022-07-30T12:27:05.574Z,24.48
2022-07-30T12:29:35.232Z,24.44
2022-07-30T12:32:03.966Z,24.57
2022-07-30T12:34:31.816Z,25.01
2022-07-30T12:37:10.465Z,24.69
2022-07-30T12:39:40.588Z,24.27
2022-07-30T12:42:18.897Z,25.04
2022-07-30T12:44:49.374Z,25.09
2022-07-30T12:47:22.228Z,25.48
2022-07-30T12:49:53.186Z,26.19
2022-07-30T12:52:28.628Z,25.99
2022-07-30T12:55:05.438Z,26.15
2022-07-30T12:57:55.137Z,26.11
2022-07-30T13:00:24.959Z,26.65
2022-07-30T13:02:53.017Z,26.19
2022-07-30T13:05:21.205Z,25.51
2022-07-30T13:07:57.356Z,25.58
2022-07-30T13:10:30.061Z,25.28
2022-07-30T13:12:59.966Z,25.15
2022-07-30T13:15:28.046Z,24.75
2022-07-30T13:17:55.895Z,24.72
2022-07-30T13:20:24.217Z,23.93
2022-07-30T13:22:52.088Z,23.60
2022-07-30T13:25:19.885Z,23.59
2022-07-30T13:27:48.529Z,23.82
2022-07-30T13:30:16.575Z,23.53
2022-07-30T13:32:44.399Z,23.94
2022-07-30T13:35:12.526Z,23.93
2022-07-30T13:37:40.327Z,23.49
2022-07-30T13:40:09.235Z,23.39
2022-07-30T13:42:37.436Z,23.54
2022-07-30T13:45:07.594Z,24.00
2022-07-30T13:47:35.880Z,23.81
2022-07-30T13:50:04.311Z,24.15
2022-07-30T13:52:32.278Z,23.89
2022-07-30T13:55:00.126Z,23.66
2022-07-30T13:57:28.357Z,23.56
2022-07-30T13:59:56.146Z,23.05
2022-07-30T14:02:23.896Z,22.57
2022-07-30T14:04:52.234Z,23.12
2022-07-30T14:07:20.273Z,22.92
2022-07-30T14:09:52.682Z,22.94
2022-07-30T14:12:22.420Z,22.90
2022-07-30T14:14:50.346Z,23.20
2022-07-30T14:17:18.306Z,23.65
2022-07-30T14:19:47.352Z,24.03
2022-07-30T14:22:15.188Z,23.94
2022-07-30T14:24:44.357Z,24.46
2022-07-30T14:27:12.588Z,24.60
2022-07-30T14:29:40.777Z,24.69
2022-07-30T14:32:10.460Z,24.30
2022-07-30T14:34:38.595Z,24.42
2022-07-30T14:37:07.078Z,24.42
2022-07-30T14:39:42.457Z,24.87
2022-07-30T14:42:10.547Z,24.44
2022-07-30T14:44:38.520Z,24.30
2022-07-30T14:47:07.363Z,24.36
2022-07-30T14:49:35.786Z,24.34
2022-07-30T14:52:03.794Z,24.07
2022-07-30T14:54:32.658Z,24.45
2022-07-30T14:57:01.053Z,24.46
2022-07-30T14:59:29.817Z,24.62
2022-07-30T15:01:58.112Z,24.76
2022-07-30T15:04:26.019Z,24.90
2022-07-30T15:06:54.477Z,25.29
2022-07-30T15:09:22.756Z,25.14
2022-07-30T15:12:08.885Z,25.44
2022-07-30T15:14:39.974Z,25.56
2022-07-30T15:17:08.270Z,24.94
2022-07-30T15:19:36.195Z,25.34
2022-07-30T15:22:05.549Z,25.31
2022-07-30T15:24:33.924Z,25.25
2022-07-30T15:27:01.725Z,25.17
2022-07-30T15:29:30.999Z,24.83
2022-07-30T15:32:01.404Z,24.19
2022-07-30T15:34:34.474Z,24.79
2022-07-30T15:37:03.199Z,24.37
2022-07-30T15:39:33.185Z,24.61
2022-07-30T15:42:02.842Z,24.96
2022-07-30T15:44:31.966Z,25.03
2022-07-30T15:47:00.736Z,25.41
2022-07-30T15:49:29.165Z,24.91
2022-07-30T15:51:59.821Z,24.47
2022-07-30T15:54:28.566Z,24.49
2022-07-30T15:57:01.089Z,24.60
2022-07-30T15:59:30.519Z,24.59
2022-07-30T16:01:59.228Z,25.29
2022-07-30T16:04:31.483Z,25.13
2022-07-30T16:07:01.507Z,25.15
2022-07-30T16:09:29.953Z,25.47
2022-07-30T16:11:58.587Z,25.00
2022-07-30T16:14:27.117Z,25.02
2022-07-30T16:16:55.429Z,24.69
2022-07-30T16:19:23.240Z,25.27
2022-07-30T16:21:51.341Z,25.09
2022-07-30T16:24:19.781Z,25.08
2022-07-30T16:26:47.637Z,24.90
2022-07-30T16:29:15.549Z,24.77
2022-07-30T16:31:44.060Z,24.92
2022-07-30T16:34:11.859Z,24.87
2022-07-30T16:36:39.845Z,24.99
2022-07-30T16:39:08.024Z,24.69
2022-07-30T16:41:36.694Z,25.03
2022-07-30T16:44:05.059Z,25.04
2022-07-30T16:46:33.646Z,24.79
2022-07-30T16:49:01.836Z,24.36
2022-07-30T16:51:30.675Z,24.50
2022-07-30T16:53:59.037Z,24.63
2022-07-30T16:56:27.083Z,25.15
2022-07-30T16:58:55.036Z,24.81
2022-07-30T17:01:23.507Z,24.36
2022-07-30T17:03:51.366Z,23.60
2022-07-30T17:06:19.401Z,24.22
2022-07-30T17:08:47.594Z,24.28
2022-07-30T17:11:45.873Z,24.20
2022-07-30T17:14:04.956Z,23.97
2022-07-30T17:16:32.824Z,23.74
2022-07-30T17:19:00.624Z,24.22
2022-07-30T17:21:38.268Z,24.34
2022-07-30T17:24:11.468Z,24.82
2022-07-30T17:26:43.289Z,24.76
2022-07-30T17:29:14.963Z,24.01
2022-07-30T17:31:44.579Z,24.50
2022-07-30T17:34:14.144Z,23.89
2022-07-30T17:36:50.191Z,24.08
2022-07-30T17:40:26.375Z,23.98
2022-07-30T17:42:11.718Z,24.04
2022-07-30T17:44:41.515Z,23.51
2022-07-30T17:47:14.383Z,23.63
2022-07-30T17:49:44.147Z,23.83
2022-07-30T17:52:12.016Z,23.34
2022-07-30T17:54:39.882Z,23.61
2022-07-30T17:57:08.415Z,23.63
2022-07-30T17:59:36.186Z,23.43
2022-07-30T18:02:05.211Z,23.35
2022-07-30T18:04:34.446Z,23.22
2022-07-30T18:07:02.868Z,23.23
2022-07-30T18:09:38.962Z,22.93
2022-07-30T18:12:08.826Z,23.04
2022-07-30T18:14:36.922Z,22.80
2022-07-30T18:17:05.731Z,23.18
2022-07-30T18:19:34.517Z,22.89
2022-07-30T18:22:03.176Z,22.79
2022-07-30T18:24:32.427Z,22.85
2022-07-30T18:27:00.558Z,22.98
2022-07-30T18:29:28.456Z,22.48
2022-07-30T18:31:56.809Z,22.63
2022-07-30T18:34:25.036Z,22.44
2022-07-30T18:39:20.999Z,22.21
2022-07-30T18:41:49.247Z,22.40
2022-07-30T18:44:17.389Z,22.18
2022-07-30T18:46:45.366Z,22.54
2022-07-30T18:49:35.497Z,22.90
2022-07-30T18:52:03.205Z,22.39
2022-07-30T18:54:31.687Z,22.03
2022-07-30T18:56:59.671Z,22.51
2022-07-30T18:59:27.528Z,22.32
2022-07-30T19:01:55.910Z,22.05
2022-07-30T19:04:23.717Z,22.26
2022-07-30T19:06:51.540Z,21.58
2022-07-30T19:09:19.707Z,22.54
2022-07-30T19:11:47.917Z,22.12
2022-07-30T19:14:16.328Z,22.26
2022-07-30T19:16:45.265Z,21.87
2022-07-30T19:19:15.266Z,22.19
2022-07-30T19:21:43.496Z,21.87
2022-07-30T19:24:12.323Z,21.74
2022-07-30T19:26:40.559Z,21.93
2022-07-30T19:29:08.409Z,22.01
2022-07-30T19:31:36.785Z,21.70
2022-07-30T19:34:05.337Z,21.39
2022-07-30T19:36:33.760Z,21.69
2022-07-30T19:39:07.426Z,22.12
2022-07-30T19:41:42.684Z,21.72
2022-07-30T19:44:13.669Z,21.96
2022-07-30T19:49:40.694Z,21.82
2022-07-30T19:52:25.239Z,22.39
2022-07-30T19:54:54.178Z,21.87
2022-07-30T19:57:22.102Z,21.70
2022-07-30T19:59:59.734Z,21.81
2022-07-30T20:02:42.327Z,21.87
2022-07-30T20:05:11.955Z,21.66
2022-07-30T20:07:42.857Z,21.74
2022-07-30T20:10:13.235Z,21.55
2022-07-30T20:12:49.229Z,21.66
2022-07-30T20:15:18.103Z,21.52
2022-07-30T20:17:46.567Z,21.35
2022-07-30T20:20:15.104Z,21.13
2022-07-30T20:22:43.567Z,21.25
2022-07-30T20:25:11.650Z,21.56
2022-07-30T20:27:41.110Z,21.80
2022-07-30T20:30:11.525Z,21.15
2022-07-30T20:32:43.500Z,21.11
2022-07-30T20:35:15.178Z,21.43
2022-07-30T20:37:54.657Z,20.83
2022-07-30T20:40:26.977Z,21.27
2022-07-30T20:42:55.185Z,21.27
2022-07-30T20:45:24.851Z,21.20
2022-07-30T20:47:56.727Z,21.73
2022-07-30T20:50:30.217Z,21.31
2022-07-30T20:52:59.696Z,21.61
2022-07-30T20:55:28.149Z,21.33
2022-07-30T20:58:07.928Z,21.53
2022-07-30T21:00:42.384Z,21.16
2022-07-30T21:03:21.397Z,20.64
2022-07-30T21:05:52.571Z,20.94
2022-07-30T21:08:25.305Z,20.66
2022-07-30T21:10:55.005Z,20.56
2022-07-30T21:13:24.876Z,20.62
2022-07-30T21:16:01.648Z,20.55
2022-07-30T21:18:31.381Z,20.82
2022-07-30T21:21:00.637Z,20.78
2022-07-30T21:23:28.584Z,20.76
2022-07-30T21:26:02.985Z,20.74
2022-07-30T21:28:35.925Z,20.71
2022-07-30T21:31:07.177Z,20.64
2022-07-30T21:33:37.258Z,20.61
2022-07-30T21:36:10.446Z,20.59
2022-07-30T21:38:41.872Z,20.56
2022-07-30T21:41:40.130Z,20.11
2022-07-30T21:44:09.803Z,20.51
2022-07-30T21:46:38.118Z,20.69
2022-07-30T21:49:07.964Z,20.56
2022-07-30T21:51:36.706Z,20.82
2022-07-30T21:54:07.321Z,20.52
2022-07-30T21:56:35.239Z,20.70
2022-07-30T21:59:09.687Z,20.49
2022-07-30T22:01:38.655Z,20.39
2022-07-30T22:04:08.428Z,20.70
2022-07-30T22:06:40.091Z,20.50
2022-07-30T22:09:19.531Z,20.27
2022-07-30T22:12:01.489Z,20.27
2022-07-30T22:14:32.352Z,20.16
2022-07-30T22:17:00.995Z,20.17
2022-07-30T22:19:32.697Z,20.07
2022-07-30T22:22:26.286Z,20.21
2022-07-30T22:24:50.104Z,20.38
2022-07-30T22:27:17.856Z,20.15
2022-07-30T22:29:50.076Z,20.06
2022-07-30T22:32:17.956Z,19.42
2022-07-30T22:34:46.116Z,20.10
2022-07-30T22:37:17.345Z,19.77
2022-07-30T22:39:51.839Z,19.95
2022-07-30T22:42:24.533Z,19.73
2022-07-30T22:44:53.253Z,19.96
2022-07-30T22:47:50.682Z,19.80
2022-07-30T22:50:11.528Z,19.62
2022-07-30T22:52:48.969Z,19.48
2022-07-30T22:55:27.976Z,19.58
2022-07-30T22:57:57.932Z,19.44
2022-07-30T23:00:27.317Z,19.49
2022-07-30T23:02:57.024Z,19.46
2022-07-30T23:05:25.406Z,19.93
2022-07-30T23:07:54.225Z,19.43
2022-07-30T23:10:24.777Z,19.43
2022-07-30T23:12:16.584Z,21.92
2022-07-30T23:12:56.012Z,19.29
2022-07-30T23:15:23.934Z,19.41
2022-07-30T23:17:51.764Z,19.16
2022-07-30T23:20:20.863Z,19.28
2022-07-30T23:22:48.921Z,19.25
2022-07-30T23:25:17.023Z,19.34
2022-07-30T23:27:46.930Z,19.58
2022-07-30T23:30:15.154Z,19.80
2022-07-30T23:32:42.923Z,19.54
2022-07-30T23:35:11.563Z,19.45
2022-07-30T23:37:49.130Z,19.76
2022-07-30T23:40:18.803Z,19.63
2022-07-30T23:42:47.928Z,19.54
2022-07-30T23:45:15.664Z,19.78
2022-07-30T23:47:58.000Z,19.55
2022-07-30T23:50:31.792Z,19.67
2022-07-30T23:53:03.824Z,19.59
2022-07-30T23:55:32.067Z,19.14
2022-07-30T23:58:00.417Z,19.39
